sensor_id;sensor_type;location;lat;lon;timestamp;noise_LAeq;noise_LA_min;noise_LA_max;noise_LA01;noise_LA95
77361;Laerm;66427;51.798;10.954;2024-01-30T00:01:36;30.61;28.17;39.39;;
77361;Laerm;66427;51.798;10.954;2024-01-30T00:04:02;30.84;28.08;37.67;;
77361;Laerm;66427;51.798;10.954;2024-01-30T00:06:28;29.78;28.53;39.98;;
77361;Laerm;66427;51.798;10.954;2024-01-30T00:08:53;30.43;28.25;36.26;;
77361;Laerm;66427;51.798;10.954;2024-01-30T00:11:18;30.46;28.15;46.80;;
77361;Laerm;66427;51.798;10.954;2024-01-30T00:13:44;29.36;28.04;31.64;;
77361;Laerm;66427;51.798;10.954;2024-01-30T00:16:19;30.26;28.19;39.16;;
77361;Laerm;66427;51.798;10.954;2024-01-30T00:18:45;34.35;28.40;47.82;;
77361;Laerm;66427;51.798;10.954;2024-01-30T00:21:11;30.05;28.00;37.24;;
77361;Laerm;66427;51.798;10.954;2024-01-30T00:23:36;35.92;28.85;50.66;;
77361;Laerm;66427;51.798;10.954;2024-01-30T00:26:01;32.84;28.60;41.74;;
77361;Laerm;66427;51.798;10.954;2024-01-30T00:28:27;34.04;29.39;42.73;;
77361;Laerm;66427;51.798;10.954;2024-01-30T00:30:53;49.62;29.28;67.33;;
77361;Laerm;66427;51.798;10.954;2024-01-30T00:33:18;32.71;28.66;43.86;;
77361;Laerm;66427;51.798;10.954;2024-01-30T00:35:43;33.32;29.31;45.83;;
77361;Laerm;66427;51.798;10.954;2024-01-30T00:38:09;32.73;28.59;40.16;;
77361;Laerm;66427;51.798;10.954;2024-01-30T00:40:34;35.67;29.54;45.30;;
77361;Laerm;66427;51.798;10.954;2024-01-30T00:42:59;39.25;31.70;46.88;;
77361;Laerm;66427;51.798;10.954;2024-01-30T00:45:25;32.25;29.03;36.90;;
77361;Laerm;66427;51.798;10.954;2024-01-30T00:47:51;30.87;27.87;39.82;;
77361;Laerm;66427;51.798;10.954;2024-01-30T00:50:16;30.46;27.99;40.03;;
77361;Laerm;66427;51.798;10.954;2024-01-30T00:52:42;34.41;29.15;43.74;;
77361;Laerm;66427;51.798;10.954;2024-01-30T00:55:10;41.65;30.17;53.84;;
77361;Laerm;66427;51.798;10.954;2024-01-30T00:57:36;31.37;28.64;37.84;;
77361;Laerm;66427;51.798;10.954;2024-01-30T01:00:02;30.38;28.17;43.61;;
77361;Laerm;66427;51.798;10.954;2024-01-30T01:02:28;29.74;28.17;33.53;;
77361;Laerm;66427;51.798;10.954;2024-01-30T01:04:53;29.57;27.77;31.99;;
77361;Laerm;66427;51.798;10.954;2024-01-30T01:07:19;34.32;28.59;53.68;;
77361;Laerm;66427;51.798;10.954;2024-01-30T01:09:44;33.63;29.78;51.77;;
77361;Laerm;66427;51.798;10.954;2024-01-30T01:12:09;33.21;29.53;39.75;;
77361;Laerm;66427;51.798;10.954;2024-01-30T01:14:35;31.93;29.08;39.41;;
77361;Laerm;66427;51.798;10.954;2024-01-30T01:17:01;31.88;28.16;41.62;;
77361;Laerm;66427;51.798;10.954;2024-01-30T01:19:27;30.78;28.45;37.12;;
77361;Laerm;66427;51.798;10.954;2024-01-30T01:21:52;30.24;27.98;34.59;;
77361;Laerm;66427;51.798;10.954;2024-01-30T01:24:18;30.47;27.95;39.60;;
77361;Laerm;66427;51.798;10.954;2024-01-30T01:26:43;30.72;28.23;36.29;;
77361;Laerm;66427;51.798;10.954;2024-01-30T01:29:09;31.11;28.72;35.01;;
77361;Laerm;66427;51.798;10.954;2024-01-30T01:31:37;29.92;28.08;39.09;;
77361;Laerm;66427;51.798;10.954;2024-01-30T01:34:11;51.48;28.57;68.83;;
77361;Laerm;66427;51.798;10.954;2024-01-30T01:36:36;30.41;28.25;37.26;;
77361;Laerm;66427;51.798;10.954;2024-01-30T01:39:02;50.94;28.13;68.14;;
77361;Laerm;66427;51.798;10.954;2024-01-30T01:41:31;30.02;28.19;33.64;;
77361;Laerm;66427;51.798;10.954;2024-01-30T01:43:57;30.82;28.51;37.68;;
77361;Laerm;66427;51.798;10.954;2024-01-30T01:46:22;29.45;27.72;34.57;;
77361;Laerm;66427;51.798;10.954;2024-01-30T01:48:48;29.69;28.05;38.96;;
77361;Laerm;66427;51.798;10.954;2024-01-30T01:51:14;31.85;29.00;41.44;;
77361;Laerm;66427;51.798;10.954;2024-01-30T01:53:39;31.89;28.94;40.20;;
77361;Laerm;66427;51.798;10.954;2024-01-30T01:56:05;31.77;28.79;39.15;;
77361;Laerm;66427;51.798;10.954;2024-01-30T01:58:31;37.86;29.72;59.52;;
77361;Laerm;66427;51.798;10.954;2024-01-30T02:00:56;33.49;29.31;46.04;;
77361;Laerm;66427;51.798;10.954;2024-01-30T02:03:22;32.28;28.70;42.38;;
77361;Laerm;66427;51.798;10.954;2024-01-30T02:05:48;32.76;29.46;38.10;;
77361;Laerm;66427;51.798;10.954;2024-01-30T02:08:13;33.12;28.43;50.59;;
77361;Laerm;66427;51.798;10.954;2024-01-30T02:10:38;35.13;30.20;48.67;;
77361;Laerm;66427;51.798;10.954;2024-01-30T02:13:04;37.07;31.89;55.20;;
77361;Laerm;66427;51.798;10.954;2024-01-30T02:15:30;35.08;29.77;45.37;;
77361;Laerm;66427;51.798;10.954;2024-01-30T02:17:55;37.55;32.14;46.64;;
77361;Laerm;66427;51.798;10.954;2024-01-30T02:20:21;34.86;31.18;41.14;;
77361;Laerm;66427;51.798;10.954;2024-01-30T02:22:47;36.12;31.17;45.32;;
77361;Laerm;66427;51.798;10.954;2024-01-30T02:25:13;35.42;31.85;44.69;;
77361;Laerm;66427;51.798;10.954;2024-01-30T02:27:38;37.15;30.54;46.41;;
77361;Laerm;66427;51.798;10.954;2024-01-30T02:30:04;37.60;31.08;49.52;;
77361;Laerm;66427;51.798;10.954;2024-01-30T02:32:29;34.77;29.92;54.95;;
77361;Laerm;66427;51.798;10.954;2024-01-30T02:34:55;33.37;28.84;40.69;;
77361;Laerm;66427;51.798;10.954;2024-01-30T02:37:20;31.69;28.48;36.01;;
77361;Laerm;66427;51.798;10.954;2024-01-30T02:39:46;29.76;27.72;35.84;;
77361;Laerm;66427;51.798;10.954;2024-01-30T02:42:11;29.93;27.76;33.08;;
77361;Laerm;66427;51.798;10.954;2024-01-30T02:44:36;31.13;29.00;34.39;;
77361;Laerm;66427;51.798;10.954;2024-01-30T02:47:02;30.74;28.74;37.08;;
77361;Laerm;66427;51.798;10.954;2024-01-30T02:49:27;30.37;28.37;35.79;;
77361;Laerm;66427;51.798;10.954;2024-01-30T02:51:53;52.96;28.97;72.10;;
77361;Laerm;66427;51.798;10.954;2024-01-30T02:54:18;34.28;30.65;40.33;;
77361;Laerm;66427;51.798;10.954;2024-01-30T02:56:44;33.90;29.96;42.28;;
77361;Laerm;66427;51.798;10.954;2024-01-30T02:59:09;33.55;28.63;46.66;;
77361;Laerm;66427;51.798;10.954;2024-01-30T03:01:42;33.03;29.46;45.04;;
77361;Laerm;66427;51.798;10.954;2024-01-30T03:04:07;34.37;30.56;39.12;;
77361;Laerm;66427;51.798;10.954;2024-01-30T03:06:32;33.90;29.28;49.40;;
77361;Laerm;66427;51.798;10.954;2024-01-30T03:08:58;38.34;30.16;64.42;;
77361;Laerm;66427;51.798;10.954;2024-01-30T03:11:23;33.61;30.15;43.61;;
77361;Laerm;66427;51.798;10.954;2024-01-30T03:13:49;34.89;30.37;48.81;;
77361;Laerm;66427;51.798;10.954;2024-01-30T03:16:14;36.62;32.10;47.66;;
77361;Laerm;66427;51.798;10.954;2024-01-30T03:18:39;35.24;30.76;56.02;;
77361;Laerm;66427;51.798;10.954;2024-01-30T03:21:05;36.49;31.06;48.45;;
77361;Laerm;66427;51.798;10.954;2024-01-30T03:23:30;33.42;29.65;40.84;;
77361;Laerm;66427;51.798;10.954;2024-01-30T03:25:57;33.58;30.53;41.42;;
77361;Laerm;66427;51.798;10.954;2024-01-30T03:28:23;32.94;30.31;38.46;;
77361;Laerm;66427;51.798;10.954;2024-01-30T03:30:48;33.39;30.11;39.00;;
77361;Laerm;66427;51.798;10.954;2024-01-30T03:33:13;35.52;32.08;42.82;;
77361;Laerm;66427;51.798;10.954;2024-01-30T03:35:39;34.77;31.40;42.94;;
77361;Laerm;66427;51.798;10.954;2024-01-30T03:38:04;36.20;31.61;45.86;;
77361;Laerm;66427;51.798;10.954;2024-01-30T03:40:29;35.22;30.88;48.15;;
77361;Laerm;66427;51.798;10.954;2024-01-30T03:42:55;35.13;31.80;47.73;;
77361;Laerm;66427;51.798;10.954;2024-01-30T03:45:20;38.13;30.73;51.20;;
77361;Laerm;66427;51.798;10.954;2024-01-30T03:47:46;31.60;28.80;36.13;;
77361;Laerm;66427;51.798;10.954;2024-01-30T03:50:11;34.40;30.95;40.45;;
77361;Laerm;66427;51.798;10.954;2024-01-30T03:52:36;37.43;32.30;59.42;;
77361;Laerm;66427;51.798;10.954;2024-01-30T03:55:02;38.14;31.52;52.34;;
77361;Laerm;66427;51.798;10.954;2024-01-30T03:57:27;37.39;31.85;48.73;;
77361;Laerm;66427;51.798;10.954;2024-01-30T03:59:52;34.37;31.04;45.34;;
77361;Laerm;66427;51.798;10.954;2024-01-30T04:02:18;34.74;31.38;53.06;;
77361;Laerm;66427;51.798;10.954;2024-01-30T04:04:44;34.12;31.47;37.05;;
77361;Laerm;66427;51.798;10.954;2024-01-30T04:07:09;34.82;31.91;42.40;;
77361;Laerm;66427;51.798;10.954;2024-01-30T04:09:34;48.60;31.49;67.82;;
77361;Laerm;66427;51.798;10.954;2024-01-30T04:12:00;36.81;31.25;45.21;;
77361;Laerm;66427;51.798;10.954;2024-01-30T04:14:28;39.00;33.52;59.63;;
77361;Laerm;66427;51.798;10.954;2024-01-30T04:16:53;39.25;32.68;55.41;;
77361;Laerm;66427;51.798;10.954;2024-01-30T04:19:18;47.36;33.53;63.34;;
77361;Laerm;66427;51.798;10.954;2024-01-30T04:21:44;36.73;31.44;42.45;;
77361;Laerm;66427;51.798;10.954;2024-01-30T04:24:09;36.17;33.08;45.91;;
77361;Laerm;66427;51.798;10.954;2024-01-30T04:26:35;46.76;33.43;63.09;;
77361;Laerm;66427;51.798;10.954;2024-01-30T04:29:01;50.73;33.94;62.95;;
77361;Laerm;66427;51.798;10.954;2024-01-30T04:31:27;51.61;31.90;65.85;;
77361;Laerm;66427;51.798;10.954;2024-01-30T04:33:52;39.94;31.68;55.87;;
77361;Laerm;66427;51.798;10.954;2024-01-30T04:36:18;46.79;33.43;64.90;;
77361;Laerm;66427;51.798;10.954;2024-01-30T04:38:43;36.80;32.97;60.21;;
77361;Laerm;66427;51.798;10.954;2024-01-30T04:41:08;42.39;33.19;56.94;;
77361;Laerm;66427;51.798;10.954;2024-01-30T04:43:34;38.48;33.08;55.74;;
77361;Laerm;66427;51.798;10.954;2024-01-30T04:45:59;37.22;33.27;46.89;;
77361;Laerm;66427;51.798;10.954;2024-01-30T04:48:24;36.90;33.90;43.00;;
77361;Laerm;66427;51.798;10.954;2024-01-30T04:50:50;48.01;33.74;64.69;;
77361;Laerm;66427;51.798;10.954;2024-01-30T04:53:15;38.15;34.44;49.87;;
77361;Laerm;66427;51.798;10.954;2024-01-30T04:55:41;54.68;34.56;72.85;;
77361;Laerm;66427;51.798;10.954;2024-01-30T04:58:06;51.58;34.25;66.80;;
77361;Laerm;66427;51.798;10.954;2024-01-30T05:00:31;46.47;33.17;64.05;;
77361;Laerm;66427;51.798;10.954;2024-01-30T05:02:57;53.63;33.96;71.86;;
77361;Laerm;66427;51.798;10.954;2024-01-30T05:05:22;53.79;34.41;71.57;;
77361;Laerm;66427;51.798;10.954;2024-01-30T05:07:47;36.86;33.40;47.10;;
77361;Laerm;66427;51.798;10.954;2024-01-30T05:10:13;39.16;34.28;59.71;;
77361;Laerm;66427;51.798;10.954;2024-01-30T05:12:39;48.43;34.17;66.02;;
77361;Laerm;66427;51.798;10.954;2024-01-30T05:15:04;37.84;33.83;55.99;;
77361;Laerm;66427;51.798;10.954;2024-01-30T05:17:30;52.12;34.69;67.01;;
77361;Laerm;66427;51.798;10.954;2024-01-30T05:19:55;52.48;35.96;68.84;;
77361;Laerm;66427;51.798;10.954;2024-01-30T05:22:20;52.04;35.29;70.07;;
77361;Laerm;66427;51.798;10.954;2024-01-30T05:24:46;53.13;33.90;66.52;;
77361;Laerm;66427;51.798;10.954;2024-01-30T05:27:11;52.97;37.08;65.73;;
77361;Laerm;66427;51.798;10.954;2024-01-30T05:29:38;50.76;36.24;66.07;;
77361;Laerm;66427;51.798;10.954;2024-01-30T05:32:04;55.12;37.29;67.94;;
77361;Laerm;66427;51.798;10.954;2024-01-30T05:34:31;55.40;36.96;73.23;;
77361;Laerm;66427;51.798;10.954;2024-01-30T05:36:56;48.58;37.30;64.09;;
77361;Laerm;66427;51.798;10.954;2024-01-30T05:39:21;49.72;38.76;64.63;;
77361;Laerm;66427;51.798;10.954;2024-01-30T05:41:47;52.55;39.34;64.29;;
77361;Laerm;66427;51.798;10.954;2024-01-30T05:44:12;53.50;39.02;67.31;;
77361;Laerm;66427;51.798;10.954;2024-01-30T05:46:37;50.49;37.61;64.37;;
77361;Laerm;66427;51.798;10.954;2024-01-30T05:49:03;50.40;37.95;65.50;;
77361;Laerm;66427;51.798;10.954;2024-01-30T05:51:28;53.82;38.93;69.98;;
77361;Laerm;66427;51.798;10.954;2024-01-30T05:53:54;57.40;39.79;67.57;;
77361;Laerm;66427;51.798;10.954;2024-01-30T05:56:19;46.63;38.39;65.13;;
77361;Laerm;66427;51.798;10.954;2024-01-30T05:58:45;55.83;38.43;69.87;;
77361;Laerm;66427;51.798;10.954;2024-01-30T06:01:10;54.13;39.47;71.74;;
77361;Laerm;66427;51.798;10.954;2024-01-30T06:03:35;54.85;37.97;72.05;;
77361;Laerm;66427;51.798;10.954;2024-01-30T06:06:01;51.92;39.31;66.28;;
77361;Laerm;66427;51.798;10.954;2024-01-30T06:08:26;52.24;38.86;67.35;;
77361;Laerm;66427;51.798;10.954;2024-01-30T06:10:52;51.79;38.65;67.42;;
77361;Laerm;66427;51.798;10.954;2024-01-30T06:13:17;53.85;38.56;66.91;;
77361;Laerm;66427;51.798;10.954;2024-01-30T06:15:42;48.22;37.92;63.74;;
77361;Laerm;66427;51.798;10.954;2024-01-30T06:18:08;53.12;37.56;66.86;;
77361;Laerm;66427;51.798;10.954;2024-01-30T06:20:34;53.69;38.56;65.14;;
77361;Laerm;66427;51.798;10.954;2024-01-30T06:22:59;61.76;43.38;76.04;;
77361;Laerm;66427;51.798;10.954;2024-01-30T06:25:25;54.42;38.26;68.56;;
77361;Laerm;66427;51.798;10.954;2024-01-30T06:27:50;54.03;38.54;65.34;;
77361;Laerm;66427;51.798;10.954;2024-01-30T06:30:15;54.49;40.06;66.17;;
77361;Laerm;66427;51.798;10.954;2024-01-30T06:32:41;60.62;41.08;72.72;;
77361;Laerm;66427;51.798;10.954;2024-01-30T06:35:06;56.39;39.50;68.12;;
77361;Laerm;66427;51.798;10.954;2024-01-30T06:37:32;59.24;40.64;76.26;;
77361;Laerm;66427;51.798;10.954;2024-01-30T06:39:57;59.01;40.04;72.08;;
77361;Laerm;66427;51.798;10.954;2024-01-30T06:42:23;52.91;39.05;67.49;;
77361;Laerm;66427;51.798;10.954;2024-01-30T06:44:48;54.01;40.43;66.93;;
77361;Laerm;66427;51.798;10.954;2024-01-30T06:47:14;55.28;41.07;68.03;;
77361;Laerm;66427;51.798;10.954;2024-01-30T06:49:39;56.33;39.77;71.31;;
77361;Laerm;66427;51.798;10.954;2024-01-30T06:52:07;57.81;40.29;72.93;;
77361;Laerm;66427;51.798;10.954;2024-01-30T06:54:32;52.14;40.35;65.45;;
77361;Laerm;66427;51.798;10.954;2024-01-30T06:56:58;55.88;41.74;67.60;;
77361;Laerm;66427;51.798;10.954;2024-01-30T06:59:23;55.95;40.94;67.92;;
77361;Laerm;66427;51.798;10.954;2024-01-30T07:01:49;55.68;39.39;71.19;;
77361;Laerm;66427;51.798;10.954;2024-01-30T07:04:14;55.90;39.17;69.09;;
77361;Laerm;66427;51.798;10.954;2024-01-30T07:06:40;56.08;39.53;71.97;;
77361;Laerm;66427;51.798;10.954;2024-01-30T07:09:05;51.53;38.57;64.35;;
77361;Laerm;66427;51.798;10.954;2024-01-30T07:11:30;49.20;39.45;64.33;;
77361;Laerm;66427;51.798;10.954;2024-01-30T07:13:57;51.69;38.47;66.12;;
77361;Laerm;66427;51.798;10.954;2024-01-30T07:16:22;59.18;39.13;76.59;;
77361;Laerm;66427;51.798;10.954;2024-01-30T07:18:48;56.21;39.75;68.16;;
77361;Laerm;66427;51.798;10.954;2024-01-30T07:21:14;52.36;38.17;68.55;;
77361;Laerm;66427;51.798;10.954;2024-01-30T07:23:40;53.71;39.72;66.69;;
77361;Laerm;66427;51.798;10.954;2024-01-30T07:26:06;50.26;39.31;65.80;;
77361;Laerm;66427;51.798;10.954;2024-01-30T07:28:32;56.52;39.30;73.71;;
77361;Laerm;66427;51.798;10.954;2024-01-30T07:30:57;41.19;37.99;47.36;;
77361;Laerm;66427;51.798;10.954;2024-01-30T07:33:22;57.19;38.81;68.49;;
77361;Laerm;66427;51.798;10.954;2024-01-30T07:35:48;57.33;39.67;69.18;;
77361;Laerm;66427;51.798;10.954;2024-01-30T07:38:14;55.60;37.62;72.96;;
77361;Laerm;66427;51.798;10.954;2024-01-30T07:40:39;52.23;37.78;65.51;;
77361;Laerm;66427;51.798;10.954;2024-01-30T07:43:04;58.23;38.82;75.92;;
77361;Laerm;66427;51.798;10.954;2024-01-30T07:45:30;55.75;39.94;67.52;;
77361;Laerm;66427;51.798;10.954;2024-01-30T07:47:58;49.03;39.46;64.28;;
77361;Laerm;66427;51.798;10.954;2024-01-30T07:50:25;52.60;39.46;65.68;;
77361;Laerm;66427;51.798;10.954;2024-01-30T07:52:50;58.53;39.24;71.86;;
77361;Laerm;66427;51.798;10.954;2024-01-30T07:55:20;61.91;38.88;79.65;;
77361;Laerm;66427;51.798;10.954;2024-01-30T07:57:46;55.92;40.21;69.09;;
77361;Laerm;66427;51.798;10.954;2024-01-30T08:00:11;56.13;39.94;71.01;;
77361;Laerm;66427;51.798;10.954;2024-01-30T08:02:37;53.38;40.42;68.77;;
77361;Laerm;66427;51.798;10.954;2024-01-30T08:05:02;54.67;40.72;70.15;;
77361;Laerm;66427;51.798;10.954;2024-01-30T08:07:27;55.87;38.85;71.93;;
77361;Laerm;66427;51.798;10.954;2024-01-30T08:09:54;52.47;40.08;66.30;;
77361;Laerm;66427;51.798;10.954;2024-01-30T08:12:20;54.66;40.58;67.93;;
77361;Laerm;66427;51.798;10.954;2024-01-30T08:14:45;54.37;40.71;66.83;;
77361;Laerm;66427;51.798;10.954;2024-01-30T08:17:11;53.11;38.99;66.40;;
77361;Laerm;66427;51.798;10.954;2024-01-30T08:19:36;59.09;39.93;72.31;;
77361;Laerm;66427;51.798;10.954;2024-01-30T08:22:01;54.61;40.33;71.50;;
77361;Laerm;66427;51.798;10.954;2024-01-30T08:24:27;52.15;41.83;63.89;;
77361;Laerm;66427;51.798;10.954;2024-01-30T08:26:52;51.71;41.65;65.77;;
77361;Laerm;66427;51.798;10.954;2024-01-30T08:29:17;52.93;41.87;71.47;;
77361;Laerm;66427;51.798;10.954;2024-01-30T08:31:43;55.76;40.83;69.01;;
77361;Laerm;66427;51.798;10.954;2024-01-30T08:34:09;60.74;42.77;75.16;;
77361;Laerm;66427;51.798;10.954;2024-01-30T08:36:35;56.31;43.93;68.03;;
77361;Laerm;66427;51.798;10.954;2024-01-30T08:39:01;57.39;42.97;68.51;;
77361;Laerm;66427;51.798;10.954;2024-01-30T08:41:27;58.15;42.76;72.59;;
77361;Laerm;66427;51.798;10.954;2024-01-30T08:43:52;59.58;43.80;73.83;;
77361;Laerm;66427;51.798;10.954;2024-01-30T08:46:18;52.96;40.21;72.00;;
77361;Laerm;66427;51.798;10.954;2024-01-30T08:48:43;53.80;41.85;69.81;;
77361;Laerm;66427;51.798;10.954;2024-01-30T08:51:09;57.81;43.06;70.12;;
77361;Laerm;66427;51.798;10.954;2024-01-30T08:53:34;54.83;42.91;67.67;;
77361;Laerm;66427;51.798;10.954;2024-01-30T08:56:01;54.44;40.65;72.09;;
77361;Laerm;66427;51.798;10.954;2024-01-30T08:58:26;51.34;39.95;65.26;;
77361;Laerm;66427;51.798;10.954;2024-01-30T09:00:51;57.61;40.63;67.80;;
77361;Laerm;66427;51.798;10.954;2024-01-30T09:03:18;55.21;39.86;66.92;;
77361;Laerm;66427;51.798;10.954;2024-01-30T09:05:43;55.74;40.55;72.60;;
77361;Laerm;66427;51.798;10.954;2024-01-30T09:08:08;59.13;40.79;78.02;;
77361;Laerm;66427;51.798;10.954;2024-01-30T09:10:34;50.51;39.13;71.03;;
77361;Laerm;66427;51.798;10.954;2024-01-30T09:13:00;55.70;41.24;72.03;;
77361;Laerm;66427;51.798;10.954;2024-01-30T09:15:25;51.12;39.17;70.56;;
77361;Laerm;66427;51.798;10.954;2024-01-30T09:17:50;57.24;40.92;71.13;;
77361;Laerm;66427;51.798;10.954;2024-01-30T09:20:16;54.57;40.92;71.11;;
77361;Laerm;66427;51.798;10.954;2024-01-30T09:22:41;53.94;40.89;68.21;;
77361;Laerm;66427;51.798;10.954;2024-01-30T09:25:07;54.38;39.81;68.60;;
77361;Laerm;66427;51.798;10.954;2024-01-30T09:27:32;52.47;39.09;66.07;;
77361;Laerm;66427;51.798;10.954;2024-01-30T09:29:57;53.21;40.70;66.77;;
77361;Laerm;66427;51.798;10.954;2024-01-30T09:32:23;57.84;40.11;70.50;;
77361;Laerm;66427;51.798;10.954;2024-01-30T09:34:48;56.41;40.18;71.48;;
77361;Laerm;66427;51.798;10.954;2024-01-30T09:37:14;56.25;40.51;69.66;;
77361;Laerm;66427;51.798;10.954;2024-01-30T09:39:40;49.09;40.92;63.76;;
77361;Laerm;66427;51.798;10.954;2024-01-30T09:42:15;55.73;41.72;67.72;;
77361;Laerm;66427;51.798;10.954;2024-01-30T09:44:43;49.89;41.51;65.04;;
77361;Laerm;66427;51.798;10.954;2024-01-30T09:47:08;55.25;42.94;68.03;;
77361;Laerm;66427;51.798;10.954;2024-01-30T09:49:35;56.72;43.04;68.49;;
77361;Laerm;66427;51.798;10.954;2024-01-30T09:52:03;56.15;42.87;70.15;;
77361;Laerm;66427;51.798;10.954;2024-01-30T09:54:30;55.52;40.44;66.06;;
77361;Laerm;66427;51.798;10.954;2024-01-30T09:56:56;62.96;42.69;80.04;;
77361;Laerm;66427;51.798;10.954;2024-01-30T09:59:22;53.90;41.66;67.73;;
77361;Laerm;66427;51.798;10.954;2024-01-30T10:01:47;55.88;42.57;67.32;;
77361;Laerm;66427;51.798;10.954;2024-01-30T10:04:13;55.85;41.45;68.41;;
77361;Laerm;66427;51.798;10.954;2024-01-30T10:06:38;54.66;41.34;72.45;;
77361;Laerm;66427;51.798;10.954;2024-01-30T10:09:05;53.60;40.20;69.58;;
77361;Laerm;66427;51.798;10.954;2024-01-30T10:11:30;62.72;41.74;79.92;;
77361;Laerm;66427;51.798;10.954;2024-01-30T10:13:56;51.22;38.35;65.02;;
77361;Laerm;66427;51.798;10.954;2024-01-30T10:16:21;55.65;39.08;67.52;;
77361;Laerm;66427;51.798;10.954;2024-01-30T10:18:47;54.53;38.76;68.28;;
77361;Laerm;66427;51.798;10.954;2024-01-30T10:21:12;58.59;40.47;75.35;;
77361;Laerm;66427;51.798;10.954;2024-01-30T10:23:38;56.66;42.98;69.56;;
77361;Laerm;66427;51.798;10.954;2024-01-30T10:26:03;60.50;42.03;71.13;;
77361;Laerm;66427;51.798;10.954;2024-01-30T10:28:29;56.98;41.98;69.79;;
77361;Laerm;66427;51.798;10.954;2024-01-30T10:30:58;60.95;40.84;78.09;;
77361;Laerm;66427;51.798;10.954;2024-01-30T10:33:25;58.32;43.10;72.62;;
77361;Laerm;66427;51.798;10.954;2024-01-30T10:35:50;55.41;40.80;70.75;;
77361;Laerm;66427;51.798;10.954;2024-01-30T10:38:16;55.71;42.55;70.79;;
77361;Laerm;66427;51.798;10.954;2024-01-30T10:40:44;54.35;42.31;66.68;;
77361;Laerm;66427;51.798;10.954;2024-01-30T10:43:10;55.65;42.47;67.38;;
77361;Laerm;66427;51.798;10.954;2024-01-30T10:45:40;55.93;41.99;69.74;;
77361;Laerm;66427;51.798;10.954;2024-01-30T10:48:09;52.21;41.52;66.58;;
77361;Laerm;66427;51.798;10.954;2024-01-30T10:50:34;51.46;41.36;64.92;;
77361;Laerm;66427;51.798;10.954;2024-01-30T10:53:01;52.87;40.72;65.44;;
77361;Laerm;66427;51.798;10.954;2024-01-30T10:55:27;58.05;41.87;72.73;;
77361;Laerm;66427;51.798;10.954;2024-01-30T10:57:53;56.50;43.49;72.05;;
77361;Laerm;66427;51.798;10.954;2024-01-30T11:00:19;54.22;43.45;67.76;;
77361;Laerm;66427;51.798;10.954;2024-01-30T11:02:48;57.28;43.17;79.14;;
77361;Laerm;66427;51.798;10.954;2024-01-30T11:05:14;55.66;44.04;69.50;;
77361;Laerm;66427;51.798;10.954;2024-01-30T11:07:42;59.12;43.73;72.80;;
77361;Laerm;66427;51.798;10.954;2024-01-30T11:10:08;57.36;45.37;66.61;;
77361;Laerm;66427;51.798;10.954;2024-01-30T11:12:37;61.28;44.34;72.84;;
77361;Laerm;66427;51.798;10.954;2024-01-30T11:15:06;54.65;43.10;72.19;;
77361;Laerm;66427;51.798;10.954;2024-01-30T11:20:16;54.85;43.74;66.53;;
77361;Laerm;66427;51.798;10.954;2024-01-30T11:22:45;54.24;42.60;74.87;;
77361;Laerm;66427;51.798;10.954;2024-01-30T11:25:11;61.00;43.17;79.21;;
77361;Laerm;66427;51.798;10.954;2024-01-30T11:27:37;53.71;43.72;68.53;;
77361;Laerm;66427;51.798;10.954;2024-01-30T11:30:03;54.90;43.37;68.42;;
77361;Laerm;66427;51.798;10.954;2024-01-30T11:32:29;54.27;42.95;66.68;;
77361;Laerm;66427;51.798;10.954;2024-01-30T11:34:55;55.35;42.08;67.48;;
77361;Laerm;66427;51.798;10.954;2024-01-30T11:37:20;55.84;44.84;73.31;;
77361;Laerm;66427;51.798;10.954;2024-01-30T11:39:47;50.02;42.82;65.82;;
77361;Laerm;66427;51.798;10.954;2024-01-30T11:42:13;54.61;43.63;71.77;;
77361;Laerm;66427;51.798;10.954;2024-01-30T11:44:38;57.58;43.96;67.88;;
77361;Laerm;66427;51.798;10.954;2024-01-30T11:47:04;55.52;42.32;66.26;;
77361;Laerm;66427;51.798;10.954;2024-01-30T11:49:29;54.97;41.72;69.93;;
77361;Laerm;66427;51.798;10.954;2024-01-30T11:51:55;55.53;42.18;67.72;;
77361;Laerm;66427;51.798;10.954;2024-01-30T11:54:20;53.03;42.02;67.66;;
77361;Laerm;66427;51.798;10.954;2024-01-30T11:56:45;48.91;41.09;63.63;;
77361;Laerm;66427;51.798;10.954;2024-01-30T11:59:11;55.01;42.34;68.02;;
77361;Laerm;66427;51.798;10.954;2024-01-30T12:01:36;55.56;43.13;70.37;;
77361;Laerm;66427;51.798;10.954;2024-01-30T12:04:02;55.40;42.79;67.26;;
77361;Laerm;66427;51.798;10.954;2024-01-30T12:06:28;53.38;41.00;67.80;;
77361;Laerm;66427;51.798;10.954;2024-01-30T12:08:58;58.03;44.27;67.95;;
77361;Laerm;66427;51.798;10.954;2024-01-30T12:11:24;55.12;44.48;65.42;;
77361;Laerm;66427;51.798;10.954;2024-01-30T12:13:50;52.91;43.82;64.67;;
77361;Laerm;66427;51.798;10.954;2024-01-30T12:16:16;53.41;42.54;65.89;;
77361;Laerm;66427;51.798;10.954;2024-01-30T12:18:41;53.32;42.58;67.10;;
77361;Laerm;66427;51.798;10.954;2024-01-30T12:21:06;55.80;44.94;67.67;;
77361;Laerm;66427;51.798;10.954;2024-01-30T12:23:34;57.10;43.01;69.33;;
77361;Laerm;66427;51.798;10.954;2024-01-30T12:26:00;54.08;42.41;67.25;;
77361;Laerm;66427;51.798;10.954;2024-01-30T12:28:26;61.36;43.59;79.42;;
77361;Laerm;66427;51.798;10.954;2024-01-30T12:31:01;60.49;45.06;74.74;;
77361;Laerm;66427;51.798;10.954;2024-01-30T12:33:26;57.62;44.64;82.00;;
77361;Laerm;66427;51.798;10.954;2024-01-30T12:35:53;59.45;45.57;75.93;;
77361;Laerm;66427;51.798;10.954;2024-01-30T12:38:18;51.11;42.72;66.76;;
77361;Laerm;66427;51.798;10.954;2024-01-30T12:40:44;56.86;42.81;71.01;;
77361;Laerm;66427;51.798;10.954;2024-01-30T12:43:10;50.64;41.96;64.23;;
77361;Laerm;66427;51.798;10.954;2024-01-30T12:45:35;62.33;44.95;85.06;;
77361;Laerm;66427;51.798;10.954;2024-01-30T12:48:01;58.13;43.02;72.35;;
77361;Laerm;66427;51.798;10.954;2024-01-30T12:50:26;55.79;43.96;71.81;;
77361;Laerm;66427;51.798;10.954;2024-01-30T12:52:52;57.82;43.08;75.88;;
77361;Laerm;66427;51.798;10.954;2024-01-30T12:55:17;54.89;43.59;69.14;;
77361;Laerm;66427;51.798;10.954;2024-01-30T12:57:43;57.17;43.14;76.85;;
77361;Laerm;66427;51.798;10.954;2024-01-30T13:00:08;63.47;43.11;84.67;;
77361;Laerm;66427;51.798;10.954;2024-01-30T13:02:34;55.65;44.56;66.98;;
77361;Laerm;66427;51.798;10.954;2024-01-30T13:05:04;58.02;42.42;69.05;;
77361;Laerm;66427;51.798;10.954;2024-01-30T13:07:30;56.13;40.84;67.37;;
77361;Laerm;66427;51.798;10.954;2024-01-30T13:09:56;59.18;42.90;70.35;;
77361;Laerm;66427;51.798;10.954;2024-01-30T13:12:21;53.53;43.83;77.62;;
77361;Laerm;66427;51.798;10.954;2024-01-30T13:14:47;54.91;41.36;68.74;;
77361;Laerm;66427;51.798;10.954;2024-01-30T13:17:12;51.74;42.92;64.55;;
77361;Laerm;66427;51.798;10.954;2024-01-30T13:19:38;56.66;44.19;67.94;;
77361;Laerm;66427;51.798;10.954;2024-01-30T13:22:03;50.74;42.21;66.29;;
77361;Laerm;66427;51.798;10.954;2024-01-30T13:24:28;54.55;42.06;71.62;;
77361;Laerm;66427;51.798;10.954;2024-01-30T13:26:54;54.06;41.86;66.75;;